createdAt,value
2024-01-05T00:00:43.578Z,-0.25
2024-01-05T00:04:16.378Z,-0.23
2024-01-05T00:07:43.042Z,-0.23
2024-01-05T00:11:09.561Z,-0.22
2024-01-05T00:14:38.208Z,-0.22
2024-01-05T00:18:04.584Z,-0.24
2024-01-05T00:21:31.298Z,-0.26
2024-01-05T00:24:58.054Z,-0.29
2024-01-05T00:28:24.830Z,-0.28
2024-01-05T00:31:50.859Z,-0.27
2024-01-05T00:35:17.398Z,-0.27
2024-01-05T00:38:48.989Z,-0.29
2024-01-05T00:42:15.527Z,-0.35
2024-01-05T00:45:43.751Z,-0.36
2024-01-05T00:49:09.922Z,-0.38
2024-01-05T00:52:36.359Z,-0.40
2024-01-05T00:56:05.975Z,-0.40
2024-01-05T00:59:31.688Z,-0.41
2024-01-05T01:02:57.997Z,-0.42
2024-01-05T01:06:27.618Z,-0.40
2024-01-05T01:09:53.575Z,-0.37
2024-01-05T01:13:20.126Z,-0.34
2024-01-05T01:16:46.241Z,-0.31
2024-01-05T01:20:13.634Z,-0.24
2024-01-05T01:23:42.518Z,-0.17
2024-01-05T01:27:08.478Z,-0.11
2024-01-05T01:30:34.738Z,-0.08
2024-01-05T01:34:01.276Z,-0.05
2024-01-05T01:37:27.204Z,-0.10
2024-01-05T01:40:56.850Z,-0.12
2024-01-05T01:44:22.941Z,-0.12
2024-01-05T01:47:50.638Z,-0.17
2024-01-05T01:51:16.670Z,-0.23
2024-01-05T01:54:43.297Z,-0.26
2024-01-05T01:58:09.887Z,-0.30
2024-01-05T02:01:36.615Z,-0.34
2024-01-05T02:05:02.832Z,-0.39
2024-01-05T02:08:29.455Z,-0.44
2024-01-05T02:11:55.352Z,-0.48
2024-01-05T02:15:21.316Z,-0.53
2024-01-05T02:18:54.399Z,-0.57
2024-01-05T02:22:22.220Z,-0.60
2024-01-05T02:25:48.975Z,-0.61
2024-01-05T02:29:15.560Z,-0.62
2024-01-05T02:32:42.015Z,-0.64
2024-01-05T02:36:08.744Z,-0.66
2024-01-05T02:39:34.740Z,-0.67
2024-01-05T02:43:03.312Z,-0.66
2024-01-05T02:46:29.562Z,-0.64
2024-01-05T02:49:56.013Z,-0.59
2024-01-05T02:53:22.216Z,-0.50
2024-01-05T02:56:48.323Z,-0.43
2024-01-05T03:00:15.569Z,-0.36
2024-01-05T03:03:42.864Z,-0.31
2024-01-05T03:07:08.936Z,-0.26
2024-01-05T03:10:35.764Z,-0.25
2024-01-05T03:14:02.227Z,-0.26
2024-01-05T03:17:28.524Z,-0.28
2024-01-05T03:20:54.704Z,-0.32
2024-01-05T03:24:20.823Z,-0.36
2024-01-05T03:27:47.136Z,-0.41
2024-01-05T03:31:16.146Z,-0.48
2024-01-05T03:34:42.434Z,-0.55
2024-01-05T03:38:08.628Z,-0.63
2024-01-05T03:41:35.050Z,-0.71
2024-01-05T03:45:01.057Z,-0.76
2024-01-05T03:48:28.277Z,-0.82
2024-01-05T03:51:54.675Z,-0.88
2024-01-05T03:55:20.713Z,-0.93
2024-01-05T03:58:46.749Z,-0.99
2024-01-05T04:02:13.075Z,-1.04
2024-01-05T04:05:39.210Z,-1.10
2024-01-05T04:09:05.467Z,-1.18
2024-01-05T04:12:31.555Z,-1.22
2024-01-05T04:15:57.817Z,-1.26
2024-01-05T04:19:24.332Z,-1.29
2024-01-05T04:22:50.494Z,-1.30
2024-01-05T04:26:17.031Z,-1.31
2024-01-05T04:29:43.906Z,-1.28
2024-01-05T04:33:10.134Z,-1.24
2024-01-05T04:36:36.436Z,-1.18
2024-01-05T04:40:02.789Z,-1.10
2024-01-05T04:43:28.921Z,-1.01
2024-01-05T04:46:55.257Z,-0.96
2024-01-05T04:50:21.080Z,-0.90
2024-01-05T04:53:47.934Z,-0.85
2024-01-05T04:57:14.288Z,-0.86
2024-01-05T05:00:40.754Z,-0.88
2024-01-05T05:04:07.323Z,-0.88
2024-01-05T05:07:33.900Z,-0.90
2024-01-05T05:10:59.721Z,-0.91
2024-01-05T05:14:25.479Z,-0.91
2024-01-05T05:17:54.769Z,-0.93
2024-01-05T05:21:21.419Z,-0.94
2024-01-05T05:24:47.336Z,-0.96
2024-01-05T05:28:13.670Z,-0.98
2024-01-05T05:31:39.849Z,-1.01
2024-01-05T05:35:07.856Z,-1.04
2024-01-05T05:38:33.937Z,-1.08
2024-01-05T05:42:00.275Z,-1.12
2024-01-05T05:45:27.840Z,-1.15
2024-01-05T05:48:54.522Z,-1.18
2024-01-05T05:52:20.953Z,-1.17
2024-01-05T05:55:47.031Z,-1.16
2024-01-05T05:59:13.066Z,-1.12
2024-01-05T06:02:39.415Z,-1.06
2024-01-05T06:06:06.933Z,-0.98
2024-01-05T06:09:33.183Z,-0.89
2024-01-05T06:12:59.437Z,-0.79
2024-01-05T06:16:25.772Z,-0.71
2024-01-05T06:19:52.164Z,-0.66
2024-01-05T06:23:18.191Z,-0.61
2024-01-05T06:26:46.629Z,-0.57
2024-01-05T06:30:13.895Z,-0.54
2024-01-05T06:33:41.450Z,-0.53
2024-01-05T06:37:08.206Z,-0.53
2024-01-05T06:40:34.349Z,-0.53
2024-01-05T06:44:00.264Z,-0.55
2024-01-05T06:47:28.653Z,-0.57
2024-01-05T06:50:57.138Z,-0.60
2024-01-05T06:54:23.270Z,-0.62
2024-01-05T06:57:50.422Z,-0.64
2024-01-05T07:01:19.100Z,-0.66
2024-01-05T07:04:45.872Z,-0.67
2024-01-05T07:08:12.828Z,-0.68
2024-01-05T07:11:38.804Z,-0.68
2024-01-05T07:15:06.360Z,-0.66
2024-01-05T07:18:33.571Z,-0.63
2024-01-05T07:21:59.603Z,-0.59
2024-01-05T07:25:27.387Z,-0.53
2024-01-05T07:28:54.945Z,-0.46
2024-01-05T07:32:21.378Z,-0.37
2024-01-05T07:35:47.476Z,-0.29
2024-01-05T07:39:16.619Z,-0.20
2024-01-05T07:42:43.254Z,-0.13
2024-01-05T07:46:09.407Z,-0.08
2024-01-05T07:49:35.757Z,-0.05
2024-01-05T07:53:02.278Z,-0.04
2024-01-05T07:56:29.114Z,-0.04
2024-01-05T07:59:55.146Z,-0.04
2024-01-05T08:03:22.999Z,-0.07
2024-01-05T08:06:52.044Z,-0.10
2024-01-05T08:10:18.782Z,-0.12
2024-01-05T08:13:45.037Z,-0.13
2024-01-05T08:17:10.988Z,-0.13
2024-01-05T08:20:37.784Z,-0.15
2024-01-05T08:24:07.403Z,-0.17
2024-01-05T08:27:33.489Z,-0.18
2024-01-05T08:30:59.964Z,-0.17
2024-01-05T08:34:29.192Z,-0.16
2024-01-05T08:37:55.329Z,-0.13
2024-01-05T08:41:21.389Z,-0.09
2024-01-05T08:44:47.227Z,-0.03
2024-01-05T08:48:15.291Z,0.07
2024-01-05T08:51:46.020Z,0.20
2024-01-05T08:55:12.941Z,0.36
2024-01-05T08:58:38.863Z,0.47
2024-01-05T09:02:05.411Z,0.60
2024-01-05T09:05:31.712Z,0.71
2024-01-05T09:08:58.314Z,0.79
2024-01-05T09:12:25.072Z,0.84
2024-01-05T09:15:51.153Z,0.86
2024-01-05T09:19:17.594Z,0.88
2024-01-05T09:22:44.118Z,0.91
2024-01-05T09:26:16.461Z,0.89
2024-01-05T09:29:42.402Z,0.84
2024-01-05T09:33:10.450Z,0.86
2024-01-05T09:36:40.579Z,0.91
2024-01-05T09:40:11.786Z,0.95
2024-01-05T09:43:38.863Z,0.93
2024-01-05T09:47:06.167Z,0.89
2024-01-05T09:50:33.234Z,0.85
2024-01-05T09:53:59.535Z,0.80
2024-01-05T09:57:27.620Z,0.82
2024-01-05T10:00:56.456Z,0.84
2024-01-05T10:04:23.685Z,0.85
2024-01-05T10:07:49.989Z,0.88
2024-01-05T10:11:29.876Z,0.88
2024-01-05T10:15:08.036Z,0.91
2024-01-05T10:18:35.808Z,0.94
2024-01-05T10:22:12.781Z,1.00
2024-01-05T10:25:41.898Z,1.02
2024-01-05T10:29:17.321Z,1.18
2024-01-05T10:32:43.205Z,1.39
2024-01-05T10:36:10.760Z,1.60
2024-01-05T10:39:37.744Z,1.77
2024-01-05T10:43:14.710Z,1.95
2024-01-05T10:46:43.554Z,2.10
2024-01-05T10:50:11.693Z,2.19
2024-01-05T10:53:38.867Z,2.22
2024-01-05T10:57:08.328Z,2.29
2024-01-05T11:00:36.815Z,2.28
2024-01-05T11:04:05.700Z,2.22
2024-01-05T11:07:36.414Z,2.09
2024-01-05T11:11:22.901Z,2.03
2024-01-05T11:15:09.071Z,1.95
2024-01-05T11:18:58.015Z,1.86
2024-01-05T11:22:29.834Z,1.79
2024-01-05T11:25:56.985Z,1.74
2024-01-05T11:29:51.845Z,1.67
2024-01-05T11:33:47.829Z,1.62
2024-01-05T11:37:13.854Z,1.57
2024-01-05T11:40:40.277Z,1.55
2024-01-05T11:44:06.731Z,1.52
2024-01-05T11:47:49.606Z,1.49
2024-01-05T11:51:16.240Z,1.42
2024-01-05T11:54:42.562Z,1.35
2024-01-05T11:58:11.618Z,1.33
2024-01-05T12:01:37.691Z,1.30
2024-01-05T12:05:04.495Z,1.28
2024-01-05T12:08:32.424Z,1.24
2024-01-05T12:12:18.996Z,1.19
2024-01-05T12:15:59.118Z,1.18
2024-01-05T12:19:28.181Z,1.16
2024-01-05T12:22:56.455Z,1.12
2024-01-05T12:26:23.110Z,1.11
2024-01-05T12:29:50.456Z,1.12
2024-01-05T12:33:16.796Z,1.14
2024-01-05T12:36:44.689Z,1.14
2024-01-05T12:40:13.438Z,1.14
2024-01-05T12:43:40.304Z,1.14
2024-01-05T12:47:07.158Z,1.14
2024-01-05T12:50:33.395Z,1.14
2024-01-05T12:54:04.942Z,1.13
2024-01-05T12:57:33.367Z,1.16
2024-01-05T13:01:04.524Z,1.19
2024-01-05T13:04:39.956Z,1.24
2024-01-05T13:08:08.430Z,1.31
2024-01-05T13:11:34.536Z,1.39
2024-01-05T13:15:00.920Z,1.45
2024-01-05T13:18:26.890Z,1.43
2024-01-05T13:21:53.703Z,1.37
2024-01-05T13:25:20.770Z,1.36
2024-01-05T13:28:47.071Z,1.35
2024-01-05T13:32:13.376Z,1.33
2024-01-05T13:35:39.546Z,1.32
2024-01-05T13:39:07.411Z,1.28
2024-01-05T13:42:33.258Z,1.25
2024-01-05T13:46:00.513Z,1.19
2024-01-05T13:49:27.304Z,1.13
2024-01-05T13:52:53.401Z,1.06
2024-01-05T13:56:20.441Z,1.00
2024-01-05T13:59:46.898Z,0.95
2024-01-05T14:03:12.985Z,0.93
2024-01-05T14:06:39.145Z,0.88
2024-01-05T14:10:06.894Z,0.84
2024-01-05T14:13:34.170Z,0.82
2024-01-05T14:16:59.899Z,0.78
2024-01-05T14:20:26.141Z,0.77
2024-01-05T14:23:52.281Z,0.73
2024-01-05T14:27:19.096Z,0.73
2024-01-05T14:30:48.148Z,0.70
2024-01-05T14:34:15.133Z,0.65
2024-01-05T14:37:41.816Z,0.62
2024-01-05T14:41:08.200Z,0.59
2024-01-05T14:44:34.542Z,0.57
2024-01-05T14:48:01.240Z,0.54
2024-01-05T14:51:31.090Z,0.51
2024-01-05T14:54:58.366Z,0.52
2024-01-05T14:58:24.569Z,0.55
2024-01-05T15:01:50.816Z,0.60
2024-01-05T15:05:17.471Z,0.66
2024-01-05T15:08:43.886Z,0.72
2024-01-05T15:12:10.829Z,0.78
2024-01-05T15:15:39.684Z,0.81
2024-01-05T15:19:07.224Z,0.81
2024-01-05T15:22:33.843Z,0.80
2024-01-05T15:25:59.783Z,0.76
2024-01-05T15:29:26.506Z,0.70
2024-01-05T15:32:53.013Z,0.64
2024-01-05T15:36:20.488Z,0.58
2024-01-05T15:39:46.441Z,0.55
2024-01-05T15:43:16.023Z,0.50
2024-01-05T15:46:42.924Z,0.44
2024-01-05T15:50:13.674Z,0.35
2024-01-05T15:53:40.118Z,0.35
2024-01-05T15:57:07.443Z,0.30
2024-01-05T16:00:33.465Z,0.26
2024-01-05T16:04:00.231Z,0.20
2024-01-05T16:07:26.573Z,0.14
2024-01-05T16:10:52.952Z,0.12
2024-01-05T16:14:19.402Z,0.11
2024-01-05T16:17:48.298Z,0.10
2024-01-05T16:21:20.932Z,0.08
2024-01-05T16:24:46.865Z,0.06
2024-01-05T16:28:13.212Z,0.04
2024-01-05T16:31:39.399Z,0.03
2024-01-05T16:35:06.046Z,0.03
2024-01-05T16:38:32.225Z,0.03
2024-01-05T16:41:59.606Z,-0.01
2024-01-05T16:45:26.039Z,-0.04
2024-01-05T16:48:54.656Z,-0.05
2024-01-05T16:52:21.307Z,-0.05
2024-01-05T16:55:47.547Z,-0.05
2024-01-05T16:59:14.251Z,-0.06
2024-01-05T17:02:42.252Z,-0.04
2024-01-05T17:06:19.200Z,-0.03
2024-01-05T17:09:47.638Z,0.01
2024-01-05T17:13:13.752Z,0.03
2024-01-05T17:16:43.323Z,0.08
2024-01-05T17:20:21.131Z,0.13
2024-01-05T17:23:56.080Z,0.18
2024-01-05T17:27:22.498Z,0.26
2024-01-05T17:30:48.996Z,0.32
2024-01-05T17:34:16.511Z,0.35
2024-01-05T17:37:43.133Z,0.30
2024-01-05T17:41:09.319Z,0.22
2024-01-05T17:44:38.912Z,0.16
2024-01-05T17:48:05.605Z,0.10
2024-01-05T17:51:40.025Z,0.03
2024-01-05T17:55:07.074Z,-0.05
2024-01-05T17:58:33.386Z,-0.08
2024-01-05T18:01:59.349Z,-0.11
2024-01-05T18:05:26.567Z,-0.14
2024-01-05T18:08:52.697Z,-0.16
2024-01-05T18:12:18.754Z,-0.18
2024-01-05T18:15:45.024Z,-0.21
2024-01-05T18:19:12.232Z,-0.25
2024-01-05T18:22:38.373Z,-0.29
2024-01-05T18:26:05.105Z,-0.31
2024-01-05T18:29:31.749Z,-0.31
2024-01-05T18:32:58.336Z,-0.35
2024-01-05T18:36:25.381Z,-0.40
2024-01-05T18:39:51.685Z,-0.40
2024-01-05T18:43:17.619Z,-0.43
2024-01-05T18:46:43.324Z,-0.41
2024-01-05T18:50:11.148Z,-0.39
2024-01-05T18:53:37.132Z,-0.40
2024-01-05T18:57:03.244Z,-0.42
2024-01-05T19:00:30.636Z,-0.44
2024-01-05T19:03:56.696Z,-0.46
2024-01-05T19:07:22.655Z,-0.46
2024-01-05T19:10:49.040Z,-0.47
2024-01-05T19:14:15.167Z,-0.49
2024-01-05T19:17:43.902Z,-0.50
2024-01-05T19:21:10.430Z,-0.51
2024-01-05T19:24:37.406Z,-0.49
2024-01-05T19:28:03.178Z,-0.48
2024-01-05T19:31:30.906Z,-0.47
2024-01-05T19:34:59.595Z,-0.47
2024-01-05T19:38:25.878Z,-0.47
2024-01-05T19:41:52.083Z,-0.50
2024-01-05T19:45:18.399Z,-0.51
2024-01-05T19:48:45.167Z,-0.49
2024-01-05T19:52:12.259Z,-0.49
2024-01-05T19:55:38.904Z,-0.49
2024-01-05T19:59:08.087Z,-0.46
2024-01-05T20:02:34.335Z,-0.41
2024-01-05T20:06:01.985Z,-0.37
2024-01-05T20:09:29.817Z,-0.34
2024-01-05T20:12:56.448Z,-0.27
2024-01-05T20:16:27.548Z,-0.22
2024-01-05T20:19:54.190Z,-0.19
2024-01-05T20:23:21.900Z,-0.12
2024-01-05T20:26:47.915Z,-0.10
2024-01-05T20:30:15.926Z,-0.08
2024-01-05T20:33:42.181Z,-0.06
2024-01-05T20:37:10.505Z,-0.06
2024-01-05T20:40:36.788Z,-0.10
2024-01-05T20:44:03.903Z,-0.13
2024-01-05T20:47:30.344Z,-0.17
2024-01-05T20:50:56.072Z,-0.20
2024-01-05T20:54:22.633Z,-0.24
2024-01-05T20:57:49.510Z,-0.26
2024-01-05T21:01:17.923Z,-0.31
2024-01-05T21:04:45.298Z,-0.41
2024-01-05T21:08:15.567Z,-0.44
2024-01-05T21:11:42.509Z,-0.47
2024-01-05T21:15:12.018Z,-0.50
2024-01-05T21:18:38.195Z,-0.54
2024-01-05T21:22:04.848Z,-0.59
2024-01-05T21:25:34.098Z,-0.66
2024-01-05T21:29:00.486Z,-0.74
2024-01-05T21:32:28.663Z,-0.78
2024-01-05T21:35:54.698Z,-0.81
2024-01-05T21:39:21.002Z,-0.84
2024-01-05T21:42:48.660Z,-0.85
2024-01-05T21:46:15.890Z,-0.86
2024-01-05T21:49:42.257Z,-0.88
2024-01-05T21:53:09.301Z,-0.87
2024-01-05T21:56:36.037Z,-0.84
2024-01-05T22:00:08.132Z,-0.82
2024-01-05T22:03:34.519Z,-0.79
2024-01-05T22:07:02.438Z,-0.77
2024-01-05T22:10:29.396Z,-0.79
2024-01-05T22:13:55.657Z,-0.79
2024-01-05T22:17:23.196Z,-0.80
2024-01-05T22:20:50.183Z,-0.86
2024-01-05T22:24:16.533Z,-0.90
2024-01-05T22:27:42.762Z,-1.01
2024-01-05T22:31:11.741Z,-1.09
2024-01-05T22:34:37.830Z,-1.17
2024-01-05T22:38:05.876Z,-1.20
2024-01-05T22:41:31.640Z,-1.23
2024-01-05T22:44:57.697Z,-1.28
2024-01-05T22:48:29.559Z,-1.35
2024-01-05T22:52:02.443Z,-1.39
2024-01-05T22:55:28.685Z,-1.41
2024-01-05T22:58:54.671Z,-1.42
2024-01-05T23:02:20.932Z,-1.44
2024-01-05T23:05:48.113Z,-1.44
2024-01-05T23:09:14.344Z,-1.44
2024-01-05T23:12:40.808Z,-1.39
2024-01-05T23:16:09.501Z,-1.38
2024-01-05T23:19:37.794Z,-1.33
2024-01-05T23:23:04.385Z,-1.25
2024-01-05T23:26:30.674Z,-1.16
2024-01-05T23:29:57.171Z,-1.09
2024-01-05T23:33:23.357Z,-1.03
2024-01-05T23:36:50.735Z,-0.99
2024-01-05T23:40:17.236Z,-0.97
2024-01-05T23:43:43.404Z,-0.97
2024-01-05T23:47:09.860Z,-0.97
2024-01-05T23:50:35.623Z,-0.97
2024-01-05T23:54:01.981Z,-1.02
2024-01-05T23:57:28.131Z,-1.04
